sensor_id;sensor_type;location;lat;lon;timestamp;temperature;humidity
13336;DHT22;6737;51.480;11.962;2022-08-07T00:01:09;14.80;99.90
13336;DHT22;6737;51.480;11.962;2022-08-07T00:03:35;14.70;99.90
13336;DHT22;6737;51.480;11.962;2022-08-07T00:06:02;14.70;99.90
13336;DHT22;6737;51.480;11.962;2022-08-07T00:08:28;14.80;99.90
13336;DHT22;6737;51.480;11.962;2022-08-07T00:10:54;14.70;99.90
13336;DHT22;6737;51.480;11.962;2022-08-07T00:13:21;14.60;99.90
13336;DHT22;6737;51.480;11.962;2022-08-07T00:15:48;14.60;99.90
13336;DHT22;6737;51.480;11.962;2022-08-07T00:18:23;14.50;99.90
13336;DHT22;6737;51.480;11.962;2022-08-07T00:20:49;14.50;99.90
13336;DHT22;6737;51.480;11.962;2022-08-07T00:23:16;14.40;99.90
13336;DHT22;6737;51.480;11.962;2022-08-07T00:25:43;14.30;99.90
13336;DHT22;6737;51.480;11.962;2022-08-07T00:28:09;14.30;99.90
13336;DHT22;6737;51.480;11.962;2022-08-07T00:30:34;14.40;99.90
13336;DHT22;6737;51.480;11.962;2022-08-07T00:33:00;14.40;99.90
13336;DHT22;6737;51.480;11.962;2022-08-07T00:35:28;14.40;99.90
13336;DHT22;6737;51.480;11.962;2022-08-07T00:37:54;14.60;99.90
13336;DHT22;6737;51.480;11.962;2022-08-07T00:40:20;14.70;99.90
13336;DHT22;6737;51.480;11.962;2022-08-07T00:42:47;14.70;99.90
13336;DHT22;6737;51.480;11.962;2022-08-07T00:45:13;14.70;99.90
13336;DHT22;6737;51.480;11.962;2022-08-07T00:47:39;14.70;99.90
13336;DHT22;6737;51.480;11.962;2022-08-07T00:50:06;14.60;99.90
13336;DHT22;6737;51.480;11.962;2022-08-07T00:52:33;14.60;99.90
13336;DHT22;6737;51.480;11.962;2022-08-07T00:54:59;14.50;99.90
13336;DHT22;6737;51.480;11.962;2022-08-07T00:57:25;14.40;99.90
13336;DHT22;6737;51.480;11.962;2022-08-07T00:59:51;14.50;99.90
13336;DHT22;6737;51.480;11.962;2022-08-07T01:02:18;14.50;99.90
13336;DHT22;6737;51.480;11.962;2022-08-07T01:04:44;14.60;99.90
13336;DHT22;6737;51.480;11.962;2022-08-07T01:07:11;14.40;99.90
13336;DHT22;6737;51.480;11.962;2022-08-07T01:09:37;14.40;99.90
13336;DHT22;6737;51.480;11.962;2022-08-07T01:12:03;14.10;99.90
13336;DHT22;6737;51.480;11.962;2022-08-07T01:14:29;14.20;99.90
13336;DHT22;6737;51.480;11.962;2022-08-07T01:16:56;14.30;99.90
13336;DHT22;6737;51.480;11.962;2022-08-07T01:19:22;14.30;99.90
13336;DHT22;6737;51.480;11.962;2022-08-07T01:21:51;14.20;99.90
13336;DHT22;6737;51.480;11.962;2022-08-07T01:24:17;14.10;99.90
13336;DHT22;6737;51.480;11.962;2022-08-07T01:26:45;14.20;99.90
13336;DHT22;6737;51.480;11.962;2022-08-07T01:29:11;14.30;99.90
13336;DHT22;6737;51.480;11.962;2022-08-07T01:31:38;14.30;99.90
13336;DHT22;6737;51.480;11.962;2022-08-07T01:34:05;14.20;99.90
13336;DHT22;6737;51.480;11.962;2022-08-07T01:36:31;14.20;99.90
13336;DHT22;6737;51.480;11.962;2022-08-07T01:38:57;14.20;99.90
13336;DHT22;6737;51.480;11.962;2022-08-07T01:41:24;14.10;99.90
13336;DHT22;6737;51.480;11.962;2022-08-07T01:43:50;14.00;99.90
13336;DHT22;6737;51.480;11.962;2022-08-07T01:46:18;14.00;99.90
13336;DHT22;6737;51.480;11.962;2022-08-07T01:48:46;14.10;99.90
13336;DHT22;6737;51.480;11.962;2022-08-07T01:51:16;14.10;99.90
13336;DHT22;6737;51.480;11.962;2022-08-07T01:53:45;14.10;99.90
13336;DHT22;6737;51.480;11.962;2022-08-07T01:56:35;14.10;99.90
13336;DHT22;6737;51.480;11.962;2022-08-07T01:59:16;14.10;99.90
13336;DHT22;6737;51.480;11.962;2022-08-07T02:01:47;14.00;99.90
13336;DHT22;6737;51.480;11.962;2022-08-07T02:04:23;14.00;99.90
13336;DHT22;6737;51.480;11.962;2022-08-07T02:06:51;13.90;99.90
13336;DHT22;6737;51.480;11.962;2022-08-07T02:09:19;13.90;99.90
13336;DHT22;6737;51.480;11.962;2022-08-07T02:11:48;13.90;99.90
13336;DHT22;6737;51.480;11.962;2022-08-07T02:14:16;13.80;99.90
13336;DHT22;6737;51.480;11.962;2022-08-07T02:16:46;13.70;99.90
13336;DHT22;6737;51.480;11.962;2022-08-07T02:19:13;13.60;99.90
13336;DHT22;6737;51.480;11.962;2022-08-07T02:21:41;13.60;99.90
13336;DHT22;6737;51.480;11.962;2022-08-07T02:24:08;13.50;99.90
13336;DHT22;6737;51.480;11.962;2022-08-07T02:26:36;13.40;99.90
13336;DHT22;6737;51.480;11.962;2022-08-07T02:29:06;13.40;99.90
13336;DHT22;6737;51.480;11.962;2022-08-07T02:31:35;13.30;99.90
13336;DHT22;6737;51.480;11.962;2022-08-07T02:34:05;13.20;99.90
13336;DHT22;6737;51.480;11.962;2022-08-07T02:36:32;13.20;99.90
13336;DHT22;6737;51.480;11.962;2022-08-07T02:39:02;13.10;99.90
13336;DHT22;6737;51.480;11.962;2022-08-07T02:41:29;13.00;99.90
13336;DHT22;6737;51.480;11.962;2022-08-07T02:43:57;13.00;99.90
13336;DHT22;6737;51.480;11.962;2022-08-07T02:46:25;13.00;99.90
13336;DHT22;6737;51.480;11.962;2022-08-07T02:48:52;13.00;99.90
13336;DHT22;6737;51.480;11.962;2022-08-07T02:51:20;13.10;99.90
13336;DHT22;6737;51.480;11.962;2022-08-07T02:53:49;13.10;99.90
13336;DHT22;6737;51.480;11.962;2022-08-07T02:56:20;13.20;99.90
13336;DHT22;6737;51.480;11.962;2022-08-07T02:58:50;13.10;99.90
13336;DHT22;6737;51.480;11.962;2022-08-07T03:01:17;13.10;99.90
13336;DHT22;6737;51.480;11.962;2022-08-07T03:03:45;13.10;99.90
13336;DHT22;6737;51.480;11.962;2022-08-07T03:06:11;13.10;99.90
13336;DHT22;6737;51.480;11.962;2022-08-07T03:08:39;13.20;99.90
13336;DHT22;6737;51.480;11.962;2022-08-07T03:11:05;13.20;99.90
13336;DHT22;6737;51.480;11.962;2022-08-07T03:13:31;13.20;99.90
13336;DHT22;6737;51.480;11.962;2022-08-07T03:15:57;13.20;99.90
13336;DHT22;6737;51.480;11.962;2022-08-07T03:18:23;13.10;99.90
13336;DHT22;6737;51.480;11.962;2022-08-07T03:20:49;13.00;99.90
13336;DHT22;6737;51.480;11.962;2022-08-07T03:23:17;12.80;99.90
13336;DHT22;6737;51.480;11.962;2022-08-07T03:25:44;12.80;99.90
13336;DHT22;6737;51.480;11.962;2022-08-07T03:28:15;12.90;99.90
13336;DHT22;6737;51.480;11.962;2022-08-07T03:30:41;13.00;99.90
13336;DHT22;6737;51.480;11.962;2022-08-07T03:33:08;13.00;99.90
13336;DHT22;6737;51.480;11.962;2022-08-07T03:35:36;13.00;99.90
13336;DHT22;6737;51.480;11.962;2022-08-07T03:38:07;13.00;99.90
13336;DHT22;6737;51.480;11.962;2022-08-07T03:40:33;13.10;99.90
13336;DHT22;6737;51.480;11.962;2022-08-07T03:43:00;13.10;99.90
13336;DHT22;6737;51.480;11.962;2022-08-07T03:45:27;12.90;99.90
13336;DHT22;6737;51.480;11.962;2022-08-07T03:47:55;12.80;99.90
13336;DHT22;6737;51.480;11.962;2022-08-07T03:50:22;12.70;99.90
13336;DHT22;6737;51.480;11.962;2022-08-07T03:52:51;12.90;99.90
13336;DHT22;6737;51.480;11.962;2022-08-07T03:55:18;12.90;99.90
13336;DHT22;6737;51.480;11.962;2022-08-07T03:57:45;12.90;99.90
13336;DHT22;6737;51.480;11.962;2022-08-07T04:00:12;12.70;99.90
13336;DHT22;6737;51.480;11.962;2022-08-07T04:02:39;12.60;99.90
13336;DHT22;6737;51.480;11.962;2022-08-07T04:05:08;12.60;99.90
13336;DHT22;6737;51.480;11.962;2022-08-07T04:07:34;12.50;99.90
13336;DHT22;6737;51.480;11.962;2022-08-07T04:10:01;12.40;99.90
13336;DHT22;6737;51.480;11.962;2022-08-07T04:12:29;12.30;99.90
13336;DHT22;6737;51.480;11.962;2022-08-07T04:14:57;12.30;99.90
13336;DHT22;6737;51.480;11.962;2022-08-07T04:17:23;12.40;99.90
13336;DHT22;6737;51.480;11.962;2022-08-07T04:19:49;12.50;99.90
13336;DHT22;6737;51.480;11.962;2022-08-07T04:22:16;12.60;99.90
13336;DHT22;6737;51.480;11.962;2022-08-07T04:24:43;12.60;99.90
13336;DHT22;6737;51.480;11.962;2022-08-07T04:27:09;12.60;99.90
13336;DHT22;6737;51.480;11.962;2022-08-07T04:29:35;12.50;99.90
13336;DHT22;6737;51.480;11.962;2022-08-07T04:32:02;12.50;99.90
13336;DHT22;6737;51.480;11.962;2022-08-07T04:34:29;12.70;99.90
13336;DHT22;6737;51.480;11.962;2022-08-07T04:36:55;12.70;99.90
13336;DHT22;6737;51.480;11.962;2022-08-07T04:39:21;12.80;99.90
13336;DHT22;6737;51.480;11.962;2022-08-07T04:41:47;12.70;99.90
13336;DHT22;6737;51.480;11.962;2022-08-07T04:44:14;12.70;99.90
13336;DHT22;6737;51.480;11.962;2022-08-07T04:46:43;12.70;99.90
13336;DHT22;6737;51.480;11.962;2022-08-07T04:52:02;12.70;99.90
13336;DHT22;6737;51.480;11.962;2022-08-07T04:54:38;12.80;99.90
13336;DHT22;6737;51.480;11.962;2022-08-07T05:02:22;12.90;99.90
13336;DHT22;6737;51.480;11.962;2022-08-07T05:10:10;13.10;99.90
13336;DHT22;6737;51.480;11.962;2022-08-07T05:13:14;13.20;99.90
13336;DHT22;6737;51.480;11.962;2022-08-07T05:15:46;13.20;99.90
13336;DHT22;6737;51.480;11.962;2022-08-07T05:18:26;13.20;99.90
13336;DHT22;6737;51.480;11.962;2022-08-07T05:20:55;13.20;99.90
13336;DHT22;6737;51.480;11.962;2022-08-07T05:23:47;13.20;99.90
13336;DHT22;6737;51.480;11.962;2022-08-07T05:26:15;13.30;99.90
13336;DHT22;6737;51.480;11.962;2022-08-07T05:28:44;13.40;99.90
13336;DHT22;6737;51.480;11.962;2022-08-07T05:31:11;13.40;99.90
13336;DHT22;6737;51.480;11.962;2022-08-07T05:33:39;13.50;99.90
13336;DHT22;6737;51.480;11.962;2022-08-07T05:36:07;13.50;99.90
13336;DHT22;6737;51.480;11.962;2022-08-07T05:38:33;13.50;99.90
13336;DHT22;6737;51.480;11.962;2022-08-07T05:41:01;13.60;99.90
13336;DHT22;6737;51.480;11.962;2022-08-07T05:43:27;13.60;99.90
13336;DHT22;6737;51.480;11.962;2022-08-07T05:45:54;13.70;99.90
13336;DHT22;6737;51.480;11.962;2022-08-07T05:48:23;13.80;99.90
13336;DHT22;6737;51.480;11.962;2022-08-07T05:50:49;13.90;99.90
13336;DHT22;6737;51.480;11.962;2022-08-07T05:53:15;13.90;99.90
13336;DHT22;6737;51.480;11.962;2022-08-07T05:55:41;13.90;99.90
13336;DHT22;6737;51.480;11.962;2022-08-07T05:58:09;14.00;99.90
13336;DHT22;6737;51.480;11.962;2022-08-07T06:00:36;14.10;99.90
13336;DHT22;6737;51.480;11.962;2022-08-07T06:03:05;14.10;99.90
13336;DHT22;6737;51.480;11.962;2022-08-07T06:05:33;14.20;99.90
13336;DHT22;6737;51.480;11.962;2022-08-07T06:07:59;14.30;99.90
13336;DHT22;6737;51.480;11.962;2022-08-07T06:10:27;14.40;99.90
13336;DHT22;6737;51.480;11.962;2022-08-07T06:12:54;14.50;99.90
13336;DHT22;6737;51.480;11.962;2022-08-07T06:15:20;14.60;99.90
13336;DHT22;6737;51.480;11.962;2022-08-07T06:17:47;14.60;99.90
13336;DHT22;6737;51.480;11.962;2022-08-07T06:20:14;14.70;99.90
13336;DHT22;6737;51.480;11.962;2022-08-07T06:22:41;14.80;99.90
13336;DHT22;6737;51.480;11.962;2022-08-07T06:25:09;14.90;99.90
13336;DHT22;6737;51.480;11.962;2022-08-07T06:27:35;15.10;99.90
13336;DHT22;6737;51.480;11.962;2022-08-07T06:30:00;15.20;99.90
13336;DHT22;6737;51.480;11.962;2022-08-07T06:32:26;15.30;99.90
13336;DHT22;6737;51.480;11.962;2022-08-07T06:34:52;15.40;99.90
13336;DHT22;6737;51.480;11.962;2022-08-07T06:37:18;15.50;99.90
13336;DHT22;6737;51.480;11.962;2022-08-07T06:39:43;15.60;99.90
13336;DHT22;6737;51.480;11.962;2022-08-07T06:42:17;15.70;99.90
13336;DHT22;6737;51.480;11.962;2022-08-07T06:44:47;15.80;99.90
13336;DHT22;6737;51.480;11.962;2022-08-07T06:47:14;16.10;99.90
13336;DHT22;6737;51.480;11.962;2022-08-07T06:49:41;16.20;99.90
13336;DHT22;6737;51.480;11.962;2022-08-07T06:52:07;16.30;99.90
13336;DHT22;6737;51.480;11.962;2022-08-07T06:54:37;16.30;99.90
13336;DHT22;6737;51.480;11.962;2022-08-07T06:57:05;16.40;99.90
13336;DHT22;6737;51.480;11.962;2022-08-07T06:59:34;16.50;99.90
13336;DHT22;6737;51.480;11.962;2022-08-07T07:02:01;16.70;99.90
13336;DHT22;6737;51.480;11.962;2022-08-07T07:04:29;16.80;99.90
13336;DHT22;6737;51.480;11.962;2022-08-07T07:06:56;16.90;99.90
13336;DHT22;6737;51.480;11.962;2022-08-07T07:09:26;17.10;99.90
13336;DHT22;6737;51.480;11.962;2022-08-07T07:17:29;17.60;98.50
13336;DHT22;6737;51.480;11.962;2022-08-07T07:19:58;17.50;98.90
13336;DHT22;6737;51.480;11.962;2022-08-07T07:22:26;17.60;99.20
13336;DHT22;6737;51.480;11.962;2022-08-07T07:24:54;17.60;99.90
13336;DHT22;6737;51.480;11.962;2022-08-07T07:27:23;17.70;99.00
13336;DHT22;6737;51.480;11.962;2022-08-07T07:29:55;17.90;98.30
13336;DHT22;6737;51.480;11.962;2022-08-07T07:32:22;18.20;97.80
13336;DHT22;6737;51.480;11.962;2022-08-07T07:34:54;18.20;97.70
13336;DHT22;6737;51.480;11.962;2022-08-07T07:37:22;18.20;99.10
13336;DHT22;6737;51.480;11.962;2022-08-07T07:39:51;18.20;98.90
13336;DHT22;6737;51.480;11.962;2022-08-07T07:42:20;18.30;99.30
13336;DHT22;6737;51.480;11.962;2022-08-07T07:44:47;18.50;97.70
13336;DHT22;6737;51.480;11.962;2022-08-07T07:47:15;18.70;97.30
13336;DHT22;6737;51.480;11.962;2022-08-07T07:49:42;18.70;98.30
13336;DHT22;6737;51.480;11.962;2022-08-07T07:52:10;18.60;99.00
13336;DHT22;6737;51.480;11.962;2022-08-07T07:54:39;18.60;98.00
13336;DHT22;6737;51.480;11.962;2022-08-07T07:57:08;18.70;97.20
13336;DHT22;6737;51.480;11.962;2022-08-07T07:59:37;18.70;98.70
13336;DHT22;6737;51.480;11.962;2022-08-07T08:02:05;18.80;98.30
13336;DHT22;6737;51.480;11.962;2022-08-07T08:04:34;18.80;98.90
13336;DHT22;6737;51.480;11.962;2022-08-07T08:07:02;19.00;98.00
13336;DHT22;6737;51.480;11.962;2022-08-07T08:09:29;19.00;98.10
13336;DHT22;6737;51.480;11.962;2022-08-07T08:11:57;19.30;96.70
13336;DHT22;6737;51.480;11.962;2022-08-07T08:14:24;19.40;96.30
13336;DHT22;6737;51.480;11.962;2022-08-07T08:16:50;19.40;96.30
13336;DHT22;6737;51.480;11.962;2022-08-07T08:19:21;19.40;97.30
13336;DHT22;6737;51.480;11.962;2022-08-07T08:21:51;19.50;97.10
13336;DHT22;6737;51.480;11.962;2022-08-07T08:24:44;19.60;96.10
13336;DHT22;6737;51.480;11.962;2022-08-07T08:27:33;19.70;95.20
13336;DHT22;6737;51.480;11.962;2022-08-07T08:30:24;19.70;96.20
13336;DHT22;6737;51.480;11.962;2022-08-07T08:32:52;19.70;97.10
13336;DHT22;6737;51.480;11.962;2022-08-07T08:35:24;19.80;96.80
13336;DHT22;6737;51.480;11.962;2022-08-07T08:37:58;19.90;96.90
13336;DHT22;6737;51.480;11.962;2022-08-07T08:40:30;19.90;96.00
13336;DHT22;6737;51.480;11.962;2022-08-07T08:43:37;20.10;93.90
13336;DHT22;6737;51.480;11.962;2022-08-07T08:46:15;20.10;95.10
13336;DHT22;6737;51.480;11.962;2022-08-07T08:52:34;20.30;94.60
13336;DHT22;6737;51.480;11.962;2022-08-07T08:57:36;20.40;93.10
13336;DHT22;6737;51.480;11.962;2022-08-07T09:00:08;20.50;93.40
13336;DHT22;6737;51.480;11.962;2022-08-07T09:02:43;20.50;93.40
13336;DHT22;6737;51.480;11.962;2022-08-07T09:05:33;20.50;92.50
13336;DHT22;6737;51.480;11.962;2022-08-07T09:08:29;20.70;91.10
13336;DHT22;6737;51.480;11.962;2022-08-07T09:11:22;20.80;91.80
13336;DHT22;6737;51.480;11.962;2022-08-07T09:16:38;20.60;92.50
13336;DHT22;6737;51.480;11.962;2022-08-07T09:19:38;20.40;93.90
13336;DHT22;6737;51.480;11.962;2022-08-07T09:22:33;20.10;93.80
13336;DHT22;6737;51.480;11.962;2022-08-07T09:28:04;20.00;94.50
13336;DHT22;6737;51.480;11.962;2022-08-07T09:30:59;20.20;94.60
13336;DHT22;6737;51.480;11.962;2022-08-07T09:34:28;20.30;93.20
13336;DHT22;6737;51.480;11.962;2022-08-07T09:36:47;20.20;94.30
13336;DHT22;6737;51.480;11.962;2022-08-07T09:39:45;20.10;94.10
13336;DHT22;6737;51.480;11.962;2022-08-07T09:49:26;20.10;93.70
13336;DHT22;6737;51.480;11.962;2022-08-07T09:54:07;20.00;94.00
13336;DHT22;6737;51.480;11.962;2022-08-07T10:05:10;20.60;90.60
13336;DHT22;6737;51.480;11.962;2022-08-07T10:16:03;21.80;90.50
13336;DHT22;6737;51.480;11.962;2022-08-07T10:21:22;22.10;90.00
13336;DHT22;6737;51.480;11.962;2022-08-07T10:27:10;22.40;88.70
13336;DHT22;6737;51.480;11.962;2022-08-07T10:43:28;22.50;86.10
13336;DHT22;6737;51.480;11.962;2022-08-07T10:45:59;22.70;85.20
13336;DHT22;6737;51.480;11.962;2022-08-07T10:48:56;22.80;82.80
13336;DHT22;6737;51.480;11.962;2022-08-07T10:51:56;22.80;85.30
13336;DHT22;6737;51.480;11.962;2022-08-07T10:54:36;22.90;84.30
13336;DHT22;6737;51.480;11.962;2022-08-07T10:57:07;22.90;82.00
13336;DHT22;6737;51.480;11.962;2022-08-07T11:00:05;23.00;82.70
13336;DHT22;6737;51.480;11.962;2022-08-07T11:05:57;23.20;82.20
13336;DHT22;6737;51.480;11.962;2022-08-07T11:08:41;23.20;81.50
13336;DHT22;6737;51.480;11.962;2022-08-07T11:11:26;23.30;81.30
13336;DHT22;6737;51.480;11.962;2022-08-07T11:17:00;23.30;83.20
13336;DHT22;6737;51.480;11.962;2022-08-07T11:22:29;23.30;80.60
13336;DHT22;6737;51.480;11.962;2022-08-07T11:26:07;23.30;83.80
13336;DHT22;6737;51.480;11.962;2022-08-07T11:28:29;23.30;82.00
13336;DHT22;6737;51.480;11.962;2022-08-07T11:31:05;23.20;78.80
13336;DHT22;6737;51.480;11.962;2022-08-07T11:39:05;23.10;83.60
13336;DHT22;6737;51.480;11.962;2022-08-07T11:41:47;23.20;81.60
13336;DHT22;6737;51.480;11.962;2022-08-07T11:44:26;23.30;82.20
13336;DHT22;6737;51.480;11.962;2022-08-07T11:55:53;23.20;80.80
13336;DHT22;6737;51.480;11.962;2022-08-07T12:09:18;23.30;80.00
13336;DHT22;6737;51.480;11.962;2022-08-07T12:11:58;23.30;80.30
13336;DHT22;6737;51.480;11.962;2022-08-07T12:14:31;23.30;80.80
13336;DHT22;6737;51.480;11.962;2022-08-07T12:17:04;23.30;78.10
13336;DHT22;6737;51.480;11.962;2022-08-07T12:22:27;23.30;78.60
13336;DHT22;6737;51.480;11.962;2022-08-07T12:28:20;23.20;76.80
13336;DHT22;6737;51.480;11.962;2022-08-07T12:30:51;23.20;80.80
13336;DHT22;6737;51.480;11.962;2022-08-07T12:33:22;23.10;79.40
13336;DHT22;6737;51.480;11.962;2022-08-07T12:35:51;23.00;78.30
13336;DHT22;6737;51.480;11.962;2022-08-07T12:38:20;23.10;79.60
13336;DHT22;6737;51.480;11.962;2022-08-07T12:40:48;23.10;79.20
13336;DHT22;6737;51.480;11.962;2022-08-07T12:43:18;23.00;79.30
13336;DHT22;6737;51.480;11.962;2022-08-07T12:48:52;22.90;79.60
13336;DHT22;6737;51.480;11.962;2022-08-07T12:51:23;23.00;78.50
13336;DHT22;6737;51.480;11.962;2022-08-07T12:54:00;23.00;79.10
13336;DHT22;6737;51.480;11.962;2022-08-07T12:56:37;23.10;78.80
13336;DHT22;6737;51.480;11.962;2022-08-07T12:59:06;23.00;80.50
13336;DHT22;6737;51.480;11.962;2022-08-07T13:02:38;23.20;77.90
13336;DHT22;6737;51.480;11.962;2022-08-07T13:07:49;23.30;78.90
13336;DHT22;6737;51.480;11.962;2022-08-07T13:21:16;23.40;77.10
13336;DHT22;6737;51.480;11.962;2022-08-07T13:23:47;23.40;76.40
13336;DHT22;6737;51.480;11.962;2022-08-07T13:29:16;23.30;76.30
13336;DHT22;6737;51.480;11.962;2022-08-07T13:31:58;23.30;77.40
13336;DHT22;6737;51.480;11.962;2022-08-07T13:37:17;23.40;74.90
13336;DHT22;6737;51.480;11.962;2022-08-07T13:40:06;23.40;75.80
13336;DHT22;6737;51.480;11.962;2022-08-07T13:42:36;23.40;74.90
13336;DHT22;6737;51.480;11.962;2022-08-07T13:45:05;23.40;76.00
13336;DHT22;6737;51.480;11.962;2022-08-07T13:47:35;23.40;74.20
13336;DHT22;6737;51.480;11.962;2022-08-07T13:50:02;23.40;76.80
13336;DHT22;6737;51.480;11.962;2022-08-07T13:52:30;23.30;77.90
13336;DHT22;6737;51.480;11.962;2022-08-07T13:54:58;23.30;77.40
13336;DHT22;6737;51.480;11.962;2022-08-07T13:57:31;23.20;76.30
13336;DHT22;6737;51.480;11.962;2022-08-07T13:59:59;23.30;76.50
13336;DHT22;6737;51.480;11.962;2022-08-07T14:02:28;23.30;73.90
13336;DHT22;6737;51.480;11.962;2022-08-07T14:05:03;23.40;74.40
13336;DHT22;6737;51.480;11.962;2022-08-07T14:07:33;23.50;73.90
13336;DHT22;6737;51.480;11.962;2022-08-07T14:10:03;23.50;73.80
13336;DHT22;6737;51.480;11.962;2022-08-07T14:12:39;23.40;73.90
13336;DHT22;6737;51.480;11.962;2022-08-07T14:15:38;23.30;75.60
13336;DHT22;6737;51.480;11.962;2022-08-07T14:18:14;23.40;76.10
13336;DHT22;6737;51.480;11.962;2022-08-07T14:20:43;23.40;75.20
13336;DHT22;6737;51.480;11.962;2022-08-07T14:23:16;23.40;76.00
13336;DHT22;6737;51.480;11.962;2022-08-07T14:25:45;23.40;76.20
13336;DHT22;6737;51.480;11.962;2022-08-07T14:28:14;23.50;74.40
13336;DHT22;6737;51.480;11.962;2022-08-07T14:30:46;23.50;76.00
13336;DHT22;6737;51.480;11.962;2022-08-07T14:33:14;23.40;75.40
13336;DHT22;6737;51.480;11.962;2022-08-07T14:35:41;23.40;74.20
13336;DHT22;6737;51.480;11.962;2022-08-07T14:38:08;23.40;75.20
13336;DHT22;6737;51.480;11.962;2022-08-07T14:40:36;23.30;74.70
13336;DHT22;6737;51.480;11.962;2022-08-07T14:43:13;23.30;76.80
13336;DHT22;6737;51.480;11.962;2022-08-07T14:45:50;23.30;75.90
13336;DHT22;6737;51.480;11.962;2022-08-07T14:48:30;23.30;74.00
13336;DHT22;6737;51.480;11.962;2022-08-07T14:51:08;23.30;73.40
13336;DHT22;6737;51.480;11.962;2022-08-07T14:53:39;23.40;75.10
13336;DHT22;6737;51.480;11.962;2022-08-07T14:56:08;23.40;76.10
13336;DHT22;6737;51.480;11.962;2022-08-07T14:58:37;23.30;75.80
13336;DHT22;6737;51.480;11.962;2022-08-07T15:01:06;23.30;73.60
13336;DHT22;6737;51.480;11.962;2022-08-07T15:03:34;23.30;74.70
13336;DHT22;6737;51.480;11.962;2022-08-07T15:06:01;23.30;78.50
13336;DHT22;6737;51.480;11.962;2022-08-07T15:08:31;23.40;74.50
13336;DHT22;6737;51.480;11.962;2022-08-07T15:11:10;23.40;76.70
13336;DHT22;6737;51.480;11.962;2022-08-07T15:13:56;23.40;73.60
13336;DHT22;6737;51.480;11.962;2022-08-07T15:16:36;23.30;75.30
13336;DHT22;6737;51.480;11.962;2022-08-07T15:19:12;23.20;75.00
13336;DHT22;6737;51.480;11.962;2022-08-07T15:21:43;23.20;80.00
13336;DHT22;6737;51.480;11.962;2022-08-07T15:24:21;23.30;72.30
13336;DHT22;6737;51.480;11.962;2022-08-07T15:26:56;23.20;73.20
13336;DHT22;6737;51.480;11.962;2022-08-07T15:29:32;23.20;74.20
13336;DHT22;6737;51.480;11.962;2022-08-07T15:32:01;23.20;73.60
13336;DHT22;6737;51.480;11.962;2022-08-07T15:34:45;23.20;75.00
13336;DHT22;6737;51.480;11.962;2022-08-07T15:37:14;23.20;75.10
13336;DHT22;6737;51.480;11.962;2022-08-07T15:39:48;23.30;73.50
13336;DHT22;6737;51.480;11.962;2022-08-07T15:45:04;23.10;74.10
13336;DHT22;6737;51.480;11.962;2022-08-07T15:47:34;23.10;74.30
13336;DHT22;6737;51.480;11.962;2022-08-07T15:50:02;23.10;73.00
13336;DHT22;6737;51.480;11.962;2022-08-07T15:52:29;23.10;73.20
13336;DHT22;6737;51.480;11.962;2022-08-07T15:54:57;23.00;79.00
13336;DHT22;6737;51.480;11.962;2022-08-07T15:57:26;23.00;73.90
13336;DHT22;6737;51.480;11.962;2022-08-07T15:59:55;23.00;74.00
13336;DHT22;6737;51.480;11.962;2022-08-07T16:02:27;23.10;74.20
13336;DHT22;6737;51.480;11.962;2022-08-07T16:04:57;23.10;74.90
13336;DHT22;6737;51.480;11.962;2022-08-07T16:07:31;23.10;73.70
13336;DHT22;6737;51.480;11.962;2022-08-07T16:10:16;23.00;74.40
13336;DHT22;6737;51.480;11.962;2022-08-07T16:24:02;22.80;74.90
13336;DHT22;6737;51.480;11.962;2022-08-07T16:26:57;22.70;71.70
13336;DHT22;6737;51.480;11.962;2022-08-07T16:30:02;22.70;72.50
13336;DHT22;6737;51.480;11.962;2022-08-07T16:33:18;22.80;72.60
13336;DHT22;6737;51.480;11.962;2022-08-07T16:35:46;22.80;75.50
13336;DHT22;6737;51.480;11.962;2022-08-07T16:54:47;22.50;74.10
13336;DHT22;6737;51.480;11.962;2022-08-07T16:58:00;22.50;73.90
13336;DHT22;6737;51.480;11.962;2022-08-07T17:00:41;22.50;73.30
13336;DHT22;6737;51.480;11.962;2022-08-07T17:03:41;22.60;72.80
13336;DHT22;6737;51.480;11.962;2022-08-07T17:14:14;22.60;74.10
13336;DHT22;6737;51.480;11.962;2022-08-07T17:16:50;22.60;76.50
13336;DHT22;6737;51.480;11.962;2022-08-07T17:21:48;22.40;73.90
13336;DHT22;6737;51.480;11.962;2022-08-07T17:24:22;22.30;74.60
13336;DHT22;6737;51.480;11.962;2022-08-07T17:26:59;22.40;74.70
13336;DHT22;6737;51.480;11.962;2022-08-07T17:32:20;22.30;75.10
13336;DHT22;6737;51.480;11.962;2022-08-07T17:34:53;22.20;76.90
13336;DHT22;6737;51.480;11.962;2022-08-07T17:37:29;22.20;75.10
13336;DHT22;6737;51.480;11.962;2022-08-07T17:40:05;22.20;75.10
13336;DHT22;6737;51.480;11.962;2022-08-07T17:45:07;22.20;74.10
13336;DHT22;6737;51.480;11.962;2022-08-07T17:47:49;22.30;74.70
13336;DHT22;6737;51.480;11.962;2022-08-07T17:50:30;22.20;74.80
13336;DHT22;6737;51.480;11.962;2022-08-07T17:53:12;22.20;75.40
13336;DHT22;6737;51.480;11.962;2022-08-07T17:55:48;22.30;74.10
13336;DHT22;6737;51.480;11.962;2022-08-07T17:58:45;22.30;75.20
13336;DHT22;6737;51.480;11.962;2022-08-07T18:01:19;22.20;76.10
13336;DHT22;6737;51.480;11.962;2022-08-07T18:03:52;22.20;76.40
13336;DHT22;6737;51.480;11.962;2022-08-07T18:06:36;22.10;76.10
13336;DHT22;6737;51.480;11.962;2022-08-07T18:09:04;22.10;75.50
13336;DHT22;6737;51.480;11.962;2022-08-07T18:11:39;22.00;75.60
13336;DHT22;6737;51.480;11.962;2022-08-07T18:14:17;21.90;75.70
13336;DHT22;6737;51.480;11.962;2022-08-07T18:16:58;21.90;79.30
13336;DHT22;6737;51.480;11.962;2022-08-07T18:19:53;21.80;77.50
13336;DHT22;6737;51.480;11.962;2022-08-07T18:24:55;21.70;76.90
13336;DHT22;6737;51.480;11.962;2022-08-07T18:28:06;21.60;77.40
13336;DHT22;6737;51.480;11.962;2022-08-07T18:30:43;21.60;77.10
13336;DHT22;6737;51.480;11.962;2022-08-07T18:39:38;21.50;77.90
13336;DHT22;6737;51.480;11.962;2022-08-07T18:42:13;21.40;77.80
13336;DHT22;6737;51.480;11.962;2022-08-07T18:45:01;21.40;77.80
13336;DHT22;6737;51.480;11.962;2022-08-07T18:56:33;21.20;78.40
13336;DHT22;6737;51.480;11.962;2022-08-07T19:01:57;21.10;78.30
13336;DHT22;6737;51.480;11.962;2022-08-07T19:04:39;21.00;78.40
13336;DHT22;6737;51.480;11.962;2022-08-07T19:07:27;21.00;80.80
13336;DHT22;6737;51.480;11.962;2022-08-07T19:10:05;21.00;79.50
13336;DHT22;6737;51.480;11.962;2022-08-07T19:21:31;20.80;81.00
13336;DHT22;6737;51.480;11.962;2022-08-07T19:23:59;20.70;82.80
13336;DHT22;6737;51.480;11.962;2022-08-07T19:26:33;20.60;82.30
13336;DHT22;6737;51.480;11.962;2022-08-07T19:29:03;20.60;81.30
13336;DHT22;6737;51.480;11.962;2022-08-07T19:31:37;20.60;82.50
13336;DHT22;6737;51.480;11.962;2022-08-07T19:34:06;20.60;82.80
13336;DHT22;6737;51.480;11.962;2022-08-07T19:36:40;20.60;83.20
13336;DHT22;6737;51.480;11.962;2022-08-07T19:39:12;20.50;84.90